Time;durP1;ratioP1;P1;durP2;ratioP2;P2;SDS_P1;SDS_P2;PMS_P1;PMS_P2;Temp;Humidity;BMP_temperature;BMP_pressure;BME280_temperature;BME280_humidity;BME280_pressure;Samples;Min_cycle;Max_cycle;Signal;HPM_P1;HPM_P2
2023/01/16 00:00:35;;;;;;;3.55;1.05;;;6.80;99.90;;;;;;4106394;28;20031;-68
2023/01/16 00:02:35;;;;;;;5.18;1.20;;;6.80;99.90;;;;;;4111741;28;20111;-68
2023/01/16 00:04:36;;;;;;;2.35;1.15;;;6.80;99.90;;;;;;4124969;28;20046;-68
2023/01/16 00:06:37;;;;;;;8.55;1.40;;;6.80;99.90;;;;;;4128998;28;20043;-68
2023/01/16 00:08:37;;;;;;;6.20;1.35;;;6.80;99.90;;;;;;4119876;28;20038;-68
2023/01/16 00:10:39;;;;;;;3.70;1.30;;;6.80;99.90;;;;;;4128576;28;20037;-68
2023/01/16 00:12:39;;;;;;;4.93;1.35;;;6.80;99.90;;;;;;4122521;28;21296;-68
2023/01/16 00:14:40;;;;;;;4.80;1.50;;;6.70;99.90;;;;;;4123633;28;20035;-68
2023/01/16 00:16:40;;;;;;;7.25;1.33;;;6.70;99.90;;;;;;4126768;28;20058;-68
2023/01/16 00:18:41;;;;;;;4.35;1.23;;;6.70;99.90;;;;;;4129552;28;20041;-68
2023/01/16 00:20:42;;;;;;;4.18;0.95;;;6.70;99.90;;;;;;4130130;28;20054;-68
2023/01/16 00:22:43;;;;;;;4.10;1.23;;;6.70;99.90;;;;;;4130563;28;20049;-68
2023/01/16 00:24:43;;;;;;;4.50;1.45;;;6.70;99.90;;;;;;4129777;28;20385;-68
2023/01/16 00:26:44;;;;;;;4.95;1.20;;;6.60;99.90;;;;;;4129822;28;20054;-68
2023/01/16 00:28:44;;;;;;;4.15;1.20;;;6.70;99.90;;;;;;4123085;28;20033;-69
2023/01/16 00:30:46;;;;;;;3.65;1.10;;;6.70;99.90;;;;;;4123572;28;20034;-69
2023/01/16 00:32:46;;;;;;;3.67;0.80;;;6.70;99.90;;;;;;4126664;28;20043;-68
2023/01/16 00:34:47;;;;;;;3.60;0.75;;;6.70;99.90;;;;;;4129856;28;20114;-69
2023/01/16 00:36:48;;;;;;;3.92;1.13;;;6.70;99.90;;;;;;4128767;28;20073;-68
2023/01/16 00:38:48;;;;;;;6.53;1.70;;;6.70;99.90;;;;;;4121210;28;20034;-68
2023/01/16 00:40:49;;;;;;;11.45;1.42;;;6.60;99.90;;;;;;4129599;28;20165;-68
2023/01/16 00:42:50;;;;;;;4.60;1.20;;;6.60;99.90;;;;;;4130265;28;20026;-68
2023/01/16 00:44:50;;;;;;;5.22;1.45;;;6.60;99.90;;;;;;4125274;28;20050;-68
2023/01/16 00:46:51;;;;;;;3.80;1.30;;;6.60;99.90;;;;;;4127135;28;20055;-68
2023/01/16 00:48:51;;;;;;;6.35;1.88;;;6.70;99.90;;;;;;4119448;28;20150;-68
2023/01/16 00:50:52;;;;;;;7.75;1.50;;;6.60;99.90;;;;;;4104629;28;20030;-69
2023/01/16 00:52:53;;;;;;;5.38;1.20;;;6.70;99.90;;;;;;4122759;28;20168;-68
2023/01/16 00:54:53;;;;;;;6.30;1.13;;;6.60;99.90;;;;;;4121977;28;20056;-68
2023/01/16 00:56:54;;;;;;;7.28;1.98;;;6.60;99.90;;;;;;4126725;28;20050;-68
2023/01/16 00:58:54;;;;;;;6.57;1.73;;;6.60;99.90;;;;;;4120160;28;20035;-68
2023/01/16 01:00:55;;;;;;;4.90;1.63;;;6.60;99.90;;;;;;4122461;28;20089;-68
2023/01/16 01:02:55;;;;;;;4.95;1.38;;;6.60;99.90;;;;;;4129220;28;20038;-68
2023/01/16 01:04:56;;;;;;;4.47;1.27;;;6.70;99.90;;;;;;4128340;28;20050;-68
2023/01/16 01:06:56;;;;;;;4.07;1.27;;;6.70;99.90;;;;;;4127578;28;20050;-68
2023/01/16 01:08:57;;;;;;;5.75;1.55;;;6.70;99.90;;;;;;4121474;28;20101;-68
2023/01/16 01:11:04;;;;;;;4.00;1.35;;;6.60;99.90;;;;;;4122453;28;20512;-68
2023/01/16 01:13:06;;;;;;;4.38;1.17;;;6.70;99.90;;;;;;4129953;28;20066;-68
2023/01/16 01:15:07;;;;;;;7.47;1.20;;;6.60;99.90;;;;;;4121472;28;20121;-70
2023/01/16 01:17:09;;;;;;;7.00;1.38;;;6.60;99.90;;;;;;4125057;28;20042;-68
2023/01/16 01:19:10;;;;;;;7.03;1.80;;;6.60;99.90;;;;;;4113261;28;20506;-67
2023/01/16 01:21:10;;;;;;;8.68;1.98;;;6.60;99.90;;;;;;4123669;28;20030;-68
2023/01/16 01:23:11;;;;;;;6.72;1.55;;;6.60;99.90;;;;;;4129576;28;20046;-68
2023/01/16 01:25:11;;;;;;;6.35;1.60;;;6.60;99.90;;;;;;4124340;28;20034;-68
2023/01/16 01:27:12;;;;;;;6.50;1.42;;;6.70;99.90;;;;;;4123592;28;20509;-68
2023/01/16 01:29:13;;;;;;;6.00;1.40;;;6.70;99.90;;;;;;4118591;28;20042;-68
2023/01/16 01:31:14;;;;;;;4.80;1.60;;;6.60;99.90;;;;;;4128677;28;20038;-68
2023/01/16 01:33:14;;;;;;;5.05;1.42;;;6.60;99.90;;;;;;4129856;28;20038;-68
2023/01/16 01:35:17;;;;;;;6.40;1.70;;;6.60;99.90;;;;;;4127139;28;20457;-68
2023/01/16 01:37:17;;;;;;;4.68;1.25;;;6.60;99.90;;;;;;4127434;28;20038;-68
2023/01/16 01:39:18;;;;;;;5.47;1.10;;;6.50;99.90;;;;;;4120398;28;20051;-69
2023/01/16 01:41:19;;;;;;;7.45;1.58;;;6.50;99.90;;;;;;4124053;28;20042;-68
2023/01/16 01:43:20;;;;;;;4.82;1.50;;;6.50;99.90;;;;;;4129489;28;20072;-68
2023/01/16 01:45:27;;;;;;;3.97;1.05;;;6.50;99.90;;;;;;4119066;28;20423;-68
2023/01/16 01:47:37;;;;;;;5.75;1.40;;;6.50;99.90;;;;;;4120320;28;20047;-68
2023/01/16 01:49:37;;;;;;;5.60;1.55;;;6.50;99.90;;;;;;4125337;28;20113;-68
2023/01/16 01:51:42;;;;;;;3.55;1.13;;;6.50;99.90;;;;;;4128704;28;20041;-68
2023/01/16 01:53:51;;;;;;;3.22;1.20;;;6.50;99.90;;;;;;4128941;28;20068;-68
2023/01/16 01:55:53;;;;;;;4.38;1.33;;;6.60;99.90;;;;;;4127465;28;20121;-68
2023/01/16 01:57:58;;;;;;;3.30;1.50;;;6.50;99.90;;;;;;4126013;28;20157;-68
2023/01/16 02:00:06;;;;;;;3.53;1.30;;;6.50;99.90;;;;;;4126525;28;20281;-69
2023/01/16 02:02:12;;;;;;;2.97;1.10;;;6.40;99.90;;;;;;4122559;28;20030;-68
2023/01/16 02:04:17;;;;;;;5.40;1.33;;;6.50;99.90;;;;;;4111650;28;20054;-68
2023/01/16 02:06:21;;;;;;;5.45;1.40;;;6.40;99.90;;;;;;4109560;28;20043;-68
2023/01/16 02:08:27;;;;;;;5.38;1.25;;;6.40;99.90;;;;;;4097857;28;20397;-68
2023/01/16 02:10:35;;;;;;;8.23;1.80;;;6.40;99.90;;;;;;4108656;28;20045;-68
2023/01/16 02:12:36;;;;;;;3.13;1.05;;;6.40;99.90;;;;;;4112574;28;20026;-68
2023/01/16 02:14:42;;;;;;;4.90;1.27;;;6.40;99.90;;;;;;4106459;28;20039;-68
2023/01/16 02:19:16;;;;;;;5.45;1.40;;;6.40;99.90;;;;;;4096978;28;20039;-68
2023/01/16 02:21:49;;;;;;;5.22;1.20;;;6.40;99.90;;;;;;4105572;28;20061;-69
2023/01/16 02:24:02;;;;;;;7.35;1.75;;;6.40;99.90;;;;;;4110755;28;20057;-68
2023/01/16 02:26:28;;;;;;;5.28;1.15;;;6.40;99.90;;;;;;4105526;28;20043;-67
2023/01/16 02:29:16;;;;;;;4.35;1.10;;;6.40;99.90;;;;;;4109926;28;20054;-68
2023/01/16 02:31:32;;;;;;;2.83;1.02;;;6.40;99.90;;;;;;4110762;28;20038;-68
2023/01/16 02:33:57;;;;;;;3.35;1.17;;;6.40;99.90;;;;;;4112980;28;20118;-68
2023/01/16 02:36:03;;;;;;;4.40;1.17;;;6.30;99.90;;;;;;4108901;28;20513;-68
2023/01/16 02:38:41;;;;;;;3.05;1.17;;;6.30;99.90;;;;;;4098038;28;20035;-68
2023/01/16 02:41:02;;;;;;;3.45;1.30;;;6.30;99.90;;;;;;4107604;28;20027;-68
2023/01/16 02:43:14;;;;;;;4.30;1.05;;;6.30;99.90;;;;;;4102429;28;20080;-68
2023/01/16 02:45:36;;;;;;;2.92;1.15;;;6.30;99.90;;;;;;4111027;28;20417;-68
2023/01/16 02:48:02;;;;;;;5.03;1.20;;;6.30;99.90;;;;;;4101067;28;20059;-68
2023/01/16 02:50:17;;;;;;;3.33;1.02;;;6.40;99.90;;;;;;4105303;28;20045;-70
2023/01/16 02:52:39;;;;;;;6.07;1.15;;;6.40;99.90;;;;;;4110706;28;20039;-68
2023/01/16 02:54:51;;;;;;;6.72;1.25;;;6.40;99.90;;;;;;4112697;28;20047;-68
2023/01/16 02:57:01;;;;;;;3.63;1.10;;;6.30;99.90;;;;;;4098225;28;20801;-68
2023/01/16 02:59:02;;;;;;;6.18;1.33;;;6.30;99.90;;;;;;4104903;28;20489;-68
2023/01/16 03:01:03;;;;;;;4.00;1.13;;;6.30;99.90;;;;;;4108697;28;20066;-68
2023/01/16 03:03:03;;;;;;;4.57;1.65;;;6.30;99.90;;;;;;4106670;28;20035;-67
2023/01/16 03:05:04;;;;;;;3.30;0.80;;;6.30;99.90;;;;;;4125045;28;20043;-69
2023/01/16 03:07:33;;;;;;;7.45;1.48;;;6.30;99.90;;;;;;4120488;28;20057;-68
2023/01/16 03:09:44;;;;;;;3.50;1.00;;;6.30;99.90;;;;;;4121870;28;20035;-68
2023/01/16 03:12:31;;;;;;;5.45;1.30;;;6.30;99.90;;;;;;4121476;28;20438;-68
2023/01/16 03:14:56;;;;;;;2.70;0.80;;;6.30;99.90;;;;;;4127831;28;20030;-68
2023/01/16 03:17:21;;;;;;;4.38;0.85;;;6.20;99.90;;;;;;4116025;28;20062;-68
2023/01/16 03:19:37;;;;;;;2.20;0.95;;;6.30;99.90;;;;;;4121609;28;20034;-68
2023/01/16 03:21:59;;;;;;;5.90;0.98;;;6.20;99.90;;;;;;4123255;28;20041;-68
2023/01/16 03:24:25;;;;;;;3.17;1.17;;;6.20;99.90;;;;;;4111105;28;20027;-68
2023/01/16 03:26:40;;;;;;;2.50;0.80;;;6.20;99.90;;;;;;4120386;28;20058;-68
2023/01/16 03:28:54;;;;;;;2.35;0.82;;;6.20;99.90;;;;;;4119583;28;20039;-68
2023/01/16 03:31:38;;;;;;;3.83;1.50;;;6.10;99.90;;;;;;4126198;28;20042;-69
2023/01/16 03:33:58;;;;;;;;;;;6.20;99.90;;;;;;4073746;28;20069;-68
2023/01/16 03:35:58;;;;;;;5.65;1.30;;;6.10;99.90;;;;;;4126420;28;20254;-68
2023/01/16 03:38:06;;;;;;;2.83;0.70;;;6.10;99.90;;;;;;4126363;28;20181;-68
2023/01/16 03:40:11;;;;;;;2.92;0.75;;;6.10;99.90;;;;;;4123107;28;20057;-68
2023/01/16 03:42:43;;;;;;;3.55;0.93;;;6.10;99.90;;;;;;4107275;28;20400;-67
2023/01/16 03:44:51;;;;;;;5.18;0.70;;;6.10;99.90;;;;;;4126949;28;20034;-68
2023/01/16 03:46:52;;;;;;;3.88;0.80;;;6.10;99.90;;;;;;4118325;28;20061;-67
2023/01/16 03:49:10;;;;;;;3.67;0.88;;;6.10;99.90;;;;;;4119066;28;20449;-68
2023/01/16 03:51:17;;;;;;;4.85;0.90;;;6.10;99.90;;;;;;4121321;28;20031;-68
2023/01/16 03:53:21;;;;;;;4.40;0.80;;;6.10;99.90;;;;;;4129757;28;20120;-68
2023/01/16 03:55:58;;;;;;;3.63;0.88;;;6.10;99.90;;;;;;4129737;28;20038;-68
2023/01/16 03:58:07;;;;;;;3.10;0.68;;;6.10;99.90;;;;;;4123636;28;20042;-68
2023/01/16 04:00:08;;;;;;;2.92;0.98;;;6.10;99.90;;;;;;4129416;28;20102;-70
2023/01/16 04:02:20;;;;;;;1.88;0.80;;;6.00;99.90;;;;;;4130545;28;20130;-67
2023/01/16 04:04:34;;;;;;;3.47;0.88;;;6.10;99.90;;;;;;4127495;28;20126;-68
2023/01/16 04:06:47;;;;;;;6.63;1.45;;;6.10;99.90;;;;;;4123233;28;20026;-68
2023/01/16 04:08:50;;;;;;;2.72;0.95;;;6.10;99.90;;;;;;4125876;28;20034;-68
2023/01/16 04:10:52;;;;;;;2.95;1.10;;;6.00;99.90;;;;;;4122006;28;20487;-68
2023/01/16 04:13:04;;;;;;;5.22;0.93;;;6.00;99.90;;;;;;4130366;28;20122;-68
2023/01/16 04:15:07;;;;;;;4.43;1.20;;;6.00;99.90;;;;;;4127951;28;20460;-68
2023/01/16 04:17:09;;;;;;;2.30;0.93;;;6.00;99.90;;;;;;4128220;28;20444;-67
2023/01/16 04:19:13;;;;;;;2.53;0.75;;;6.00;99.90;;;;;;4120516;28;20046;-68
2023/01/16 04:21:13;;;;;;;2.72;0.73;;;6.00;99.90;;;;;;4123875;28;20046;-68
2023/01/16 04:23:16;;;;;;;1.45;0.68;;;5.90;99.90;;;;;;4130366;28;20437;-68
2023/01/16 04:25:18;;;;;;;3.15;0.80;;;5.90;99.90;;;;;;4129979;28;20042;-68
2023/01/16 04:27:19;;;;;;;2.50;0.77;;;5.90;99.90;;;;;;4123017;28;20054;-68
2023/01/16 04:29:20;;;;;;;3.03;0.73;;;5.90;99.90;;;;;;4120914;28;20030;-68
2023/01/16 04:31:23;;;;;;;3.70;0.90;;;5.90;99.90;;;;;;4130675;28;20038;-67
2023/01/16 04:33:23;;;;;;;2.13;0.80;;;5.80;99.90;;;;;;4129482;28;20448;-68
2023/01/16 04:35:24;;;;;;;2.83;0.88;;;5.80;99.90;;;;;;4120931;28;20042;-68
2023/01/16 04:37:24;;;;;;;1.70;0.80;;;5.80;99.90;;;;;;4121339;28;20038;-68
2023/01/16 04:39:25;;;;;;;2.30;0.82;;;5.80;99.90;;;;;;4124635;28;20033;-68
2023/01/16 04:41:38;;;;;;;3.45;0.80;;;5.80;99.90;;;;;;4126571;28;20030;-68
2023/01/16 04:43:38;;;;;;;1.98;0.70;;;5.80;99.90;;;;;;4129988;28;20022;-67
2023/01/16 04:45:40;;;;;;;3.60;1.08;;;5.80;99.90;;;;;;4123678;28;20114;-67
2023/01/16 04:47:46;;;;;;;2.97;0.80;;;5.70;99.90;;;;;;4125201;28;20094;-68
2023/01/16 04:49:46;;;;;;;2.65;0.95;;;5.70;99.90;;;;;;4122952;28;20046;-67
2023/01/16 04:51:47;;;;;;;4.22;0.88;;;5.80;99.90;;;;;;4128135;28;20038;-68
2023/01/16 04:53:47;;;;;;;2.70;0.70;;;5.70;99.90;;;;;;4129559;28;20042;-68
2023/01/16 04:55:48;;;;;;;2.00;0.73;;;5.70;99.90;;;;;;4126255;28;20393;-68
2023/01/16 04:57:49;;;;;;;1.55;0.60;;;5.70;99.90;;;;;;4111765;28;20117;-68
2023/01/16 04:59:49;;;;;;;3.58;0.98;;;5.70;99.90;;;;;;4130350;28;20022;-68
2023/01/16 05:01:50;;;;;;;5.20;0.68;;;5.60;99.90;;;;;;4128343;28;20038;-68
2023/01/16 05:03:51;;;;;;;2.72;0.70;;;5.70;99.90;;;;;;4129233;28;20062;-68
2023/01/16 05:05:51;;;;;;;3.58;0.88;;;5.60;99.90;;;;;;4114552;28;20075;-68
2023/01/16 05:10:11;;;;;;;2.10;0.68;;;5.60;99.90;;;;;;4108504;28;20031;-68
2023/01/16 05:12:11;;;;;;;0.43;0.30;;;5.60;99.90;;;;;;4114254;28;20517;-67
2023/01/16 05:14:12;;;;;;;1.23;0.52;;;5.60;99.90;;;;;;4113918;28;20046;-67
2023/01/16 05:16:13;;;;;;;1.10;0.38;;;5.50;99.90;;;;;;4116434;28;20038;-67
2023/01/16 05:18:13;;;;;;;2.97;0.50;;;5.50;99.90;;;;;;4108684;28;20427;-68
2023/01/16 05:20:14;;;;;;;1.77;0.80;;;5.60;99.90;;;;;;4112930;28;20062;-67
2023/01/16 05:22:15;;;;;;;2.22;0.63;;;5.60;99.90;;;;;;4113522;28;20046;-68
2023/01/16 05:24:15;;;;;;;2.15;0.75;;;5.60;99.90;;;;;;4113817;28;20038;-68
2023/01/16 05:26:16;;;;;;;1.67;0.73;;;5.60;99.90;;;;;;4090950;28;20043;-68
2023/01/16 05:28:16;;;;;;;3.63;0.70;;;5.60;99.90;;;;;;4109040;28;20470;-68
2023/01/16 05:30:17;;;;;;;2.03;0.77;;;5.60;99.90;;;;;;4111550;28;20039;-68
2023/01/16 05:32:18;;;;;;;4.95;0.88;;;5.60;99.90;;;;;;4113579;28;20062;-68
2023/01/16 05:34:18;;;;;;;2.42;0.70;;;5.60;99.90;;;;;;4113772;28;20042;-68
2023/01/16 05:36:19;;;;;;;2.47;0.70;;;5.70;99.90;;;;;;4115853;28;20065;-67
2023/01/16 05:38:20;;;;;;;3.60;0.80;;;5.70;99.90;;;;;;4115290;28;20046;-68
2023/01/16 05:40:21;;;;;;;4.20;1.17;;;5.70;99.90;;;;;;4112053;28;20536;-68
2023/01/16 05:42:21;;;;;;;2.65;0.85;;;5.70;99.90;;;;;;4113823;28;20039;-68
2023/01/16 05:44:22;;;;;;;5.53;1.52;;;5.70;99.90;;;;;;4113342;28;20031;-68
2023/01/16 05:46:22;;;;;;;3.67;1.00;;;5.70;99.90;;;;;;4116172;28;20474;-68
2023/01/16 05:48:23;;;;;;;5.47;1.25;;;5.70;99.90;;;;;;4114710;28;20149;-68
2023/01/16 05:50:24;;;;;;;5.15;1.40;;;5.70;99.90;;;;;;4111154;28;20031;-68
2023/01/16 05:52:25;;;;;;;6.55;1.60;;;5.70;99.90;;;;;;4113423;28;20406;-68
2023/01/16 05:54:26;;;;;;;3.85;1.10;;;5.80;99.90;;;;;;4116860;28;20385;-68
2023/01/16 05:56:26;;;;;;;8.70;1.88;;;5.80;99.90;;;;;;4118852;28;20043;-69
2023/01/16 05:58:27;;;;;;;5.13;1.27;;;5.80;99.90;;;;;;4112675;28;20039;-68
2023/01/16 06:00:27;;;;;;;6.03;1.25;;;5.80;99.90;;;;;;4111542;28;20109;-68
2023/01/16 06:02:28;;;;;;;4.43;1.30;;;5.90;99.90;;;;;;4112887;28;20042;-68
2023/01/16 06:04:28;;;;;;;4.57;1.13;;;5.90;99.90;;;;;;4112472;28;20548;-68
2023/01/16 06:06:29;;;;;;;2.35;0.98;;;5.90;99.90;;;;;;4117747;28;20390;-68
2023/01/16 06:08:31;;;;;;;4.03;1.10;;;5.90;99.90;;;;;;4105103;28;20484;-67
2023/01/16 06:10:32;;;;;;;2.90;1.48;;;5.90;99.90;;;;;;4112183;28;20158;-68
2023/01/16 06:12:33;;;;;;;2.88;1.13;;;5.90;99.90;;;;;;4111503;28;20088;-68
2023/01/16 06:14:34;;;;;;;4.47;1.10;;;6.00;99.90;;;;;;4109414;28;20042;-68
2023/01/16 06:16:35;;;;;;;1.70;0.75;;;5.90;99.90;;;;;;4113563;28;20043;-68
2023/01/16 06:18:35;;;;;;;2.45;0.95;;;6.00;99.90;;;;;;4102570;28;20125;-68
2023/01/16 06:20:36;;;;;;;3.00;1.10;;;6.00;99.90;;;;;;4112073;28;20032;-68
2023/01/16 06:22:37;;;;;;;4.57;1.23;;;6.00;99.90;;;;;;4103716;28;20039;-68
2023/01/16 06:24:38;;;;;;;4.30;1.05;;;6.00;99.90;;;;;;4108915;28;20035;-68
2023/01/16 06:26:38;;;;;;;3.10;1.17;;;6.00;99.90;;;;;;4112607;28;20038;-67
2023/01/16 06:28:39;;;;;;;1.98;0.73;;;6.00;99.90;;;;;;4102456;28;20469;-68
2023/01/16 06:30:40;;;;;;;4.00;1.10;;;6.10;99.90;;;;;;4107688;28;20039;-67
2023/01/16 06:32:40;;;;;;;5.22;1.60;;;6.00;99.90;;;;;;4111045;28;20073;-68
2023/01/16 06:34:41;;;;;;;3.55;1.17;;;6.00;99.90;;;;;;4116147;28;20035;-68
2023/01/16 06:36:42;;;;;;;1.60;0.65;;;6.10;99.90;;;;;;4112660;28;20504;-68
2023/01/16 06:38:43;;;;;;;4.57;0.90;;;6.10;99.90;;;;;;4102940;28;20034;-68
2023/01/16 06:40:44;;;;;;;2.10;0.57;;;6.10;99.90;;;;;;4104376;28;20377;-68
2023/01/16 06:42:44;;;;;;;2.00;0.70;;;6.10;99.90;;;;;;4112241;28;20121;-68
2023/01/16 06:44:45;;;;;;;2.15;0.93;;;6.10;99.90;;;;;;4114436;28;20030;-68
2023/01/16 06:46:46;;;;;;;3.28;0.85;;;6.10;99.90;;;;;;4123825;28;20043;-68
2023/01/16 06:48:46;;;;;;;2.70;0.90;;;6.00;99.90;;;;;;4102187;28;20041;-68
2023/01/16 06:50:47;;;;;;;5.53;0.70;;;6.10;99.90;;;;;;4103715;28;20124;-69
2023/01/16 06:52:48;;;;;;;3.72;0.77;;;6.10;99.90;;;;;;4107838;28;20529;-68
2023/01/16 06:54:49;;;;;;;3.53;0.90;;;6.10;99.90;;;;;;4116650;28;20030;-68
2023/01/16 06:56:50;;;;;;;3.17;0.98;;;6.10;99.90;;;;;;4105119;28;20045;-69
2023/01/16 06:58:50;;;;;;;2.42;0.70;;;6.10;99.90;;;;;;4102634;28;20387;-68
2023/01/16 07:00:51;;;;;;;2.83;0.80;;;6.10;99.90;;;;;;4111159;28;20121;-69
2023/01/16 07:02:54;;;;;;;2.70;0.88;;;6.10;99.90;;;;;;4114411;28;20112;-69
2023/01/16 07:04:55;;;;;;;3.67;0.60;;;6.10;99.90;;;;;;4111966;28;20421;-69
2023/01/16 07:06:55;;;;;;;2.97;0.77;;;6.00;99.90;;;;;;4116562;28;20038;-69
2023/01/16 07:08:56;;;;;;;5.70;1.08;;;6.00;99.90;;;;;;4109897;28;20031;-69
2023/01/16 07:11:00;;;;;;;2.90;0.80;;;6.10;99.90;;;;;;4120303;28;20038;-69
2023/01/16 07:13:01;;;;;;;1.98;0.75;;;6.00;99.90;;;;;;4114415;28;20077;-68
2023/01/16 07:24:23;;;;;;;2.63;0.98;;;6.00;99.90;;;;;;4119347;28;20363;-69
2023/01/16 07:26:24;;;;;;;3.83;0.90;;;5.90;99.90;;;;;;4109848;28;20039;-69
2023/01/16 07:28:25;;;;;;;5.45;0.75;;;6.00;99.90;;;;;;4108556;28;20043;-69
2023/01/16 07:30:26;;;;;;;5.35;1.33;;;5.90;99.90;;;;;;4115629;28;20512;-69
2023/01/16 07:32:26;;;;;;;4.00;0.90;;;5.90;99.90;;;;;;4120444;28;20070;-69
2023/01/16 07:34:27;;;;;;;2.65;0.88;;;5.90;99.90;;;;;;4114084;28;20034;-69
2023/01/16 07:36:27;;;;;;;4.47;0.90;;;5.90;99.90;;;;;;4116512;28;20467;-69
2023/01/16 07:38:28;;;;;;;4.97;0.73;;;5.90;99.90;;;;;;4113480;28;20050;-69
2023/01/16 07:40:29;;;;;;;4.43;0.80;;;5.90;99.90;;;;;;4103253;28;20031;-69
2023/01/16 07:42:30;;;;;;;2.72;1.00;;;5.90;99.90;;;;;;4115111;28;20109;-69
2023/01/16 07:44:30;;;;;;;5.43;1.15;;;5.80;99.90;;;;;;4115607;28;20482;-69
2023/01/16 07:46:31;;;;;;;4.03;1.13;;;5.90;99.90;;;;;;4112683;28;20520;-69
2023/01/16 07:48:32;;;;;;;13.88;1.58;;;5.90;99.90;;;;;;4114801;28;20465;-69
2023/01/16 07:50:33;;;;;;;2.35;0.82;;;5.80;99.90;;;;;;4113471;28;20470;-69
2023/01/16 07:52:33;;;;;;;3.47;1.00;;;5.90;99.90;;;;;;4108838;28;20070;-69
2023/01/16 07:54:36;;;;;;;2.28;0.82;;;5.90;99.90;;;;;;4112312;28;20066;-69
2023/01/16 07:56:36;;;;;;;2.67;0.82;;;5.90;99.90;;;;;;4114949;28;20471;-68
2023/01/16 07:58:39;;;;;;;5.18;1.27;;;5.90;99.90;;;;;;4111831;28;20031;-69
2023/01/16 08:00:39;;;;;;;;;;;5.90;99.90;;;;;;4117985;28;20089;-69
2023/01/16 08:02:40;;;;;;;2.97;1.00;;;5.90;99.90;;;;;;4112796;28;20284;-69
2023/01/16 08:04:41;;;;;;;3.83;1.50;;;5.90;99.90;;;;;;4132015;28;20064;-69
2023/01/16 08:06:44;;;;;;;1.98;0.88;;;5.90;99.90;;;;;;4125047;28;20082;-69
2023/01/16 08:08:45;;;;;;;5.15;1.20;;;5.90;99.90;;;;;;4131784;28;20057;-70
2023/01/16 08:10:45;;;;;;;2.83;0.93;;;5.90;99.90;;;;;;4122696;28;20508;-70
2023/01/16 08:12:46;;;;;;;2.72;0.85;;;5.90;99.90;;;;;;4130987;28;20041;-70
2023/01/16 08:14:46;;;;;;;2.90;1.13;;;5.90;99.90;;;;;;4127208;28;20058;-70
2023/01/16 08:16:47;;;;;;;2.83;0.90;;;5.90;99.90;;;;;;4127927;28;20026;-70
2023/01/16 08:18:48;;;;;;;4.38;1.30;;;5.90;99.90;;;;;;4121240;28;20045;-70
2023/01/16 08:20:49;;;;;;;4.82;1.13;;;5.90;99.90;;;;;;4122560;28;20035;-70
2023/01/16 08:22:51;;;;;;;5.63;1.35;;;5.90;99.90;;;;;;4127686;28;20037;-70
2023/01/16 08:24:51;;;;;;;4.72;0.82;;;6.00;99.90;;;;;;4120894;28;20501;-70
2023/01/16 08:26:52;;;;;;;4.95;1.20;;;5.90;99.90;;;;;;4126704;28;20046;-70
2023/01/16 08:28:53;;;;;;;2.45;0.98;;;6.00;99.90;;;;;;4123012;28;20093;-70
2023/01/16 08:30:53;;;;;;;2.58;1.05;;;6.00;99.90;;;;;;4117641;28;20661;-71
2023/01/16 08:33:01;;;;;;;4.00;0.93;;;6.00;99.90;;;;;;4128527;28;20378;-69
2023/01/16 08:35:05;;;;;;;3.20;0.90;;;6.00;99.90;;;;;;4126960;28;20100;-70
2023/01/16 08:37:07;;;;;;;3.80;0.98;;;6.00;99.90;;;;;;4122176;28;20034;-70
2023/01/16 08:39:10;;;;;;;4.82;1.05;;;6.00;99.90;;;;;;4111716;28;20505;-70
2023/01/16 08:52:49;;;;;;;5.25;1.15;;;6.00;99.90;;;;;;4127795;28;20436;-70
2023/01/16 08:54:49;;;;;;;3.03;0.82;;;6.00;99.90;;;;;;4124461;28;20089;-70
2023/01/16 08:56:50;;;;;;;2.95;1.25;;;6.00;99.90;;;;;;4125713;28;20031;-70
2023/01/16 08:58:50;;;;;;;3.22;0.93;;;6.00;99.90;;;;;;4121956;28;20038;-70
2023/01/16 09:00:52;;;;;;;3.10;1.10;;;6.00;99.90;;;;;;4122298;28;20039;-70
2023/01/16 09:02:53;;;;;;;3.08;1.00;;;6.00;99.90;;;;;;4120864;28;20069;-70
2023/01/16 09:04:54;;;;;;;3.78;1.00;;;6.00;99.90;;;;;;4117164;28;20047;-71
2023/01/16 09:06:55;;;;;;;4.97;1.52;;;6.00;99.90;;;;;;4122717;28;20046;-70
2023/01/16 09:08:55;;;;;;;4.35;1.13;;;5.90;99.90;;;;;;4121375;28;20082;-70
2023/01/16 09:15:35;;;;;;;8.35;1.00;;;5.90;99.90;;;;;;4122206;28;20367;-70
2023/01/16 09:17:35;;;;;;;6.28;1.13;;;5.80;99.90;;;;;;4116458;28;20050;-71
2023/01/16 09:19:36;;;;;;;3.30;1.13;;;5.90;99.90;;;;;;4111903;28;20035;-71
2023/01/16 09:21:36;;;;;;;3.72;1.08;;;5.80;99.90;;;;;;4116948;28;20037;-70
2023/01/16 09:23:37;;;;;;;7.35;1.48;;;5.90;99.90;;;;;;4127890;28;20030;-71
2023/01/16 09:25:38;;;;;;;2.75;1.10;;;5.80;99.90;;;;;;4119811;28;20106;-70
2023/01/16 09:27:38;;;;;;;4.47;0.98;;;5.80;99.90;;;;;;4113535;28;20445;-71
2023/01/16 09:29:40;;;;;;;9.57;1.17;;;5.80;99.90;;;;;;4104351;28;20133;-70
2023/01/16 09:31:40;;;;;;;4.83;1.10;;;5.80;99.90;;;;;;4114460;28;20130;-70
2023/01/16 09:33:41;;;;;;;3.00;0.88;;;5.90;99.90;;;;;;4122416;28;20045;-70
2023/01/16 09:35:42;;;;;;;3.85;0.98;;;5.90;99.90;;;;;;4123529;28;20027;-70
2023/01/16 09:37:44;;;;;;;2.53;0.90;;;5.90;99.90;;;;;;4118945;28;20123;-69
2023/01/16 09:39:44;;;;;;;2.78;0.80;;;5.80;99.90;;;;;;4124598;28;20457;-70
2023/01/16 09:44:23;;;;;;;4.63;0.93;;;5.80;99.90;;;;;;4116552;28;20388;-70
2023/01/16 09:46:27;;;;;;;3.72;1.10;;;5.80;99.90;;;;;;4102857;28;20049;-70
2023/01/16 09:48:32;;;;;;;5.07;1.48;;;5.90;99.90;;;;;;4102178;28;20082;-71
2023/01/16 09:50:36;;;;;;;4.07;0.98;;;5.80;99.90;;;;;;4108247;28;20039;-70
2023/01/16 09:59:52;;;;;;;4.43;0.80;;;5.90;99.90;;;;;;4109713;28;20169;-70
2023/01/16 10:01:59;;;;;;;1.48;0.55;;;5.90;99.90;;;;;;4101373;28;20402;-70
2023/01/16 10:04:21;;;;;;;3.63;1.52;;;5.90;99.90;;;;;;4114427;28;20050;-70
2023/01/16 10:06:34;;;;;;;2.53;1.00;;;5.90;99.90;;;;;;4094309;28;20079;-70
2023/01/16 10:08:49;;;;;;;4.47;0.82;;;5.90;99.90;;;;;;4109536;28;20079;-70
2023/01/16 10:11:03;;;;;;;2.15;0.60;;;5.90;99.90;;;;;;4100629;28;20031;-70
2023/01/16 10:13:28;;;;;;;1.90;0.50;;;5.90;99.90;;;;;;4111081;28;20031;-70
2023/01/16 10:15:54;;;;;;;3.05;0.93;;;5.90;99.90;;;;;;4102292;28;20337;-70
2023/01/16 10:18:18;;;;;;;7.15;0.90;;;5.90;99.90;;;;;;4110160;28;20039;-69
2023/01/16 10:20:41;;;;;;;1.42;0.70;;;5.80;99.90;;;;;;4095017;28;20027;-70
2023/01/16 10:23:05;;;;;;;2.08;0.70;;;5.90;99.90;;;;;;4098481;28;20391;-70
2023/01/16 10:25:31;;;;;;;2.55;0.43;;;5.90;99.90;;;;;;4105628;28;20034;-69
2023/01/16 10:27:56;;;;;;;3.08;0.68;;;5.90;99.90;;;;;;4104338;28;20039;-70
2023/01/16 10:30:01;;;;;;;1.95;0.65;;;5.80;99.90;;;;;;4107895;28;20038;-70
2023/01/16 10:32:29;;;;;;;2.92;0.57;;;5.90;99.90;;;;;;4108336;28;20062;-70
2023/01/16 10:34:38;;;;;;;2.47;0.40;;;5.90;99.90;;;;;;4104085;28;20039;-70
2023/01/16 10:36:43;;;;;;;2.65;0.57;;;5.90;99.90;;;;;;4104656;28;20497;-70
2023/01/16 10:38:50;;;;;;;2.28;0.70;;;5.90;99.90;;;;;;4104739;28;20101;-69
2023/01/16 10:40:54;;;;;;;2.63;0.52;;;5.90;99.90;;;;;;4110532;28;20364;-69
2023/01/16 10:50:05;;;;;;;1.77;0.40;;;6.00;99.90;;;;;;4108273;28;20031;-69
2023/01/16 10:52:05;;;;;;;2.67;0.70;;;6.00;99.90;;;;;;4099866;28;20062;-70
2023/01/16 10:54:06;;;;;;;0.60;0.47;;;6.00;99.90;;;;;;4110747;28;20113;-70
2023/01/16 10:56:07;;;;;;;3.25;0.80;;;6.00;99.90;;;;;;4109933;28;20039;-69
2023/01/16 10:58:31;;;;;;;1.30;0.70;;;6.00;99.90;;;;;;4098756;28;20063;-70
2023/01/16 11:00:35;;;;;;;1.88;0.60;;;6.00;99.90;;;;;;4104430;28;20034;-70
2023/01/16 11:02:46;;;;;;;3.20;0.90;;;6.10;99.90;;;;;;4100023;28;20039;-70
2023/01/16 11:04:46;;;;;;;0.70;0.35;;;6.10;99.90;;;;;;4122287;28;20061;-70
2023/01/16 11:06:47;;;;;;;4.60;1.00;;;6.10;99.90;;;;;;4124726;28;20417;-69
2023/01/16 11:08:53;;;;;;;2.92;0.82;;;6.10;99.90;;;;;;4104918;28;20055;-70
2023/01/16 11:10:53;;;;;;;1.35;0.65;;;6.10;99.90;;;;;;4116375;28;20038;-69
2023/01/16 11:19:57;;;;;;;1.63;0.85;;;6.30;99.90;;;;;;4104908;28;20441;-69
2023/01/16 11:22:10;;;;;;;2.03;1.00;;;6.30;99.90;;;;;;4118019;28;20035;-70
2023/01/16 11:24:23;;;;;;;1.33;0.75;;;6.30;99.90;;;;;;4099366;28;20035;-69
2023/01/16 11:26:24;;;;;;;2.28;0.80;;;6.40;99.90;;;;;;4117409;28;20039;-69
2023/01/16 11:28:27;;;;;;;1.83;0.70;;;6.40;99.90;;;;;;4109174;28;20039;-70
2023/01/16 11:30:33;;;;;;;1.55;0.88;;;6.30;99.90;;;;;;4107480;28;20040;-70
2023/01/16 11:32:37;;;;;;;0.70;0.60;;;6.40;99.90;;;;;;4119857;28;20122;-70
2023/01/16 11:34:47;;;;;;;1.45;0.43;;;6.30;99.90;;;;;;4118810;28;20034;-70
2023/01/16 11:36:48;;;;;;;1.25;0.57;;;6.30;99.90;;;;;;4124948;28;20034;-69
2023/01/16 11:38:49;;;;;;;2.38;0.70;;;6.30;99.90;;;;;;4112781;28;20043;-70
2023/01/16 11:40:51;;;;;;;2.15;0.55;;;6.30;99.90;;;;;;4125666;28;20389;-69
2023/01/16 11:47:44;;;;;;;1.83;0.68;;;6.40;99.90;;;;;;4116058;28;20043;-70
2023/01/16 11:49:50;;;;;;;0.30;0.30;;;6.40;99.90;;;;;;4107968;28;20085;-70
2023/01/16 11:51:54;;;;;;;1.85;0.52;;;6.40;99.90;;;;;;4118317;28;20030;-70
2023/01/16 11:53:56;;;;;;;3.35;0.52;;;6.40;99.90;;;;;;4120135;28;20050;-70
2023/01/16 11:56:24;;;;;;;1.52;0.80;;;6.50;99.90;;;;;;4118184;28;20066;-70
2023/01/16 11:59:15;;;;;;;1.00;0.43;;;6.50;99.90;;;;;;4109636;28;20046;-71